createdAt,value
2023-01-30T00:01:57.981Z,13.53
2023-01-30T00:04:25.863Z,12.00
2023-01-30T00:06:53.643Z,16.07
2023-01-30T00:09:21.446Z,11.80
2023-01-30T00:11:50.584Z,11.90
2023-01-30T00:14:18.405Z,12.37
2023-01-30T00:16:46.280Z,12.33
2023-01-30T00:19:14.108Z,14.33
2023-01-30T00:21:41.894Z,15.87
2023-01-30T00:24:09.964Z,13.23
2023-01-30T00:26:37.873Z,17.47
2023-01-30T00:29:07.529Z,11.73
2023-01-30T00:31:35.285Z,13.70
2023-01-30T00:34:03.314Z,13.57
2023-01-30T00:36:31.062Z,14.07
2023-01-30T00:38:59.113Z,12.73
2023-01-30T00:41:47.064Z,12.50
2023-01-30T00:44:33.699Z,13.00
2023-01-30T00:47:08.655Z,12.63
2023-01-30T00:49:36.920Z,13.97
2023-01-30T00:52:05.180Z,13.27
2023-01-30T00:54:33.017Z,16.80
2023-01-30T00:57:01.168Z,15.17
2023-01-30T00:59:30.375Z,14.63
2023-01-30T01:01:58.249Z,14.97
2023-01-30T01:04:26.114Z,13.23
2023-01-30T01:06:53.913Z,12.17
2023-01-30T01:09:21.758Z,14.97
2023-01-30T01:11:49.565Z,15.70
2023-01-30T01:14:17.388Z,15.57
2023-01-30T01:16:46.692Z,13.47
2023-01-30T01:19:14.486Z,13.67
2023-01-30T01:21:42.280Z,13.60
2023-01-30T01:24:14.290Z,15.90
2023-01-30T01:26:42.676Z,13.90
2023-01-30T01:29:13.417Z,12.77
2023-01-30T01:31:41.313Z,15.27
2023-01-30T01:34:10.658Z,16.60
2023-01-30T01:36:54.875Z,17.00
2023-01-30T01:39:23.934Z,16.00
2023-01-30T01:41:51.096Z,15.77
2023-01-30T01:44:18.905Z,15.53
2023-01-30T01:46:51.897Z,15.20
2023-01-30T01:49:24.955Z,13.43
2023-01-30T01:51:58.231Z,12.73
2023-01-30T01:54:33.010Z,16.30
2023-01-30T01:57:03.913Z,14.80
2023-01-30T01:59:34.574Z,16.80
2023-01-30T02:02:06.904Z,14.97
2023-01-30T02:04:55.673Z,14.27
2023-01-30T02:07:23.798Z,14.90
2023-01-30T02:09:52.564Z,14.67
2023-01-30T02:12:20.383Z,14.40
2023-01-30T02:14:49.929Z,16.63
2023-01-30T02:17:17.824Z,16.10
2023-01-30T02:19:52.551Z,14.33
2023-01-30T02:22:54.441Z,14.17
2023-01-30T02:25:59.805Z,16.53
2023-01-30T02:28:53.030Z,13.77
2023-01-30T02:31:33.848Z,14.67
2023-01-30T02:34:20.550Z,15.23
2023-01-30T02:36:55.551Z,14.10
2023-01-30T02:39:34.263Z,13.57
2023-01-30T02:42:08.829Z,16.03
2023-01-30T02:44:45.513Z,13.90
2023-01-30T02:47:18.684Z,15.43
2023-01-30T02:49:49.681Z,14.63
2023-01-30T02:52:18.581Z,14.10
2023-01-30T02:54:46.423Z,16.73
2023-01-30T02:57:20.763Z,15.47
2023-01-30T02:59:52.468Z,16.17
2023-01-30T03:03:07.190Z,13.47
2023-01-30T03:05:59.753Z,13.93
2023-01-30T03:08:34.996Z,15.40
2023-01-30T03:11:06.578Z,13.27
2023-01-30T03:13:45.714Z,13.23
2023-01-30T03:16:17.049Z,14.27
2023-01-30T03:18:47.212Z,12.50
2023-01-30T03:21:15.005Z,12.70
2023-01-30T03:23:42.877Z,13.80
2023-01-30T03:26:18.311Z,16.43
2023-01-30T03:28:47.358Z,14.23
2023-01-30T03:31:15.887Z,12.73
2023-01-30T03:33:43.798Z,11.07
2023-01-30T03:36:13.308Z,10.83
2023-01-30T03:38:41.369Z,14.47
2023-01-30T03:41:09.769Z,11.83
2023-01-30T03:43:37.586Z,11.60
2023-01-30T03:46:05.706Z,12.47
2023-01-30T03:48:33.544Z,11.97
2023-01-30T03:51:01.423Z,11.87
2023-01-30T03:53:30.570Z,12.10
2023-01-30T03:55:58.423Z,10.80
2023-01-30T03:58:26.218Z,11.50
2023-01-30T04:00:55.979Z,13.17
2023-01-30T04:03:24.217Z,12.77
2023-01-30T04:05:52.073Z,12.33
2023-01-30T04:08:19.884Z,14.77
2023-01-30T04:10:49.042Z,13.50
2023-01-30T04:13:16.806Z,11.13
2023-01-30T04:15:44.601Z,14.00
2023-01-30T04:18:12.501Z,10.43
2023-01-30T04:20:40.290Z,10.47
2023-01-30T04:23:08.244Z,14.03
2023-01-30T04:25:36.052Z,13.43
2023-01-30T04:28:05.567Z,14.10
2023-01-30T04:30:33.409Z,12.00
2023-01-30T04:33:01.193Z,10.90
2023-01-30T04:35:28.999Z,11.20
2023-01-30T04:37:57.322Z,15.87
2023-01-30T04:40:25.137Z,11.53
2023-01-30T04:42:52.880Z,11.60
2023-01-30T04:45:22.010Z,12.93
2023-01-30T04:47:49.873Z,13.43
2023-01-30T04:50:17.956Z,13.80
2023-01-30T04:52:45.722Z,11.70
2023-01-30T04:55:13.558Z,13.30
2023-01-30T04:57:41.359Z,10.80
2023-01-30T05:00:10.882Z,10.83
2023-01-30T05:02:40.058Z,10.63
2023-01-30T05:05:08.291Z,12.90
2023-01-30T05:07:36.099Z,12.13
2023-01-30T05:10:03.867Z,11.83
2023-01-30T05:12:31.667Z,12.03
2023-01-30T05:14:59.436Z,10.67
2023-01-30T05:17:27.250Z,15.53
2023-01-30T05:19:56.425Z,10.33
2023-01-30T05:22:24.240Z,11.07
2023-01-30T05:24:52.054Z,12.47
2023-01-30T05:27:20.048Z,11.10
2023-01-30T05:29:47.905Z,14.03
2023-01-30T05:32:16.986Z,11.33
2023-01-30T05:34:44.935Z,9.17
2023-01-30T05:37:14.088Z,10.70
2023-01-30T05:39:41.867Z,11.30
2023-01-30T05:42:09.705Z,10.80
2023-01-30T05:44:37.476Z,11.83
2023-01-30T05:47:05.390Z,11.20
2023-01-30T05:49:33.169Z,12.93
2023-01-30T05:52:01.125Z,15.00
2023-01-30T05:54:30.266Z,12.00
2023-01-30T05:56:58.038Z,12.40
2023-01-30T05:59:25.850Z,11.80
2023-01-30T06:01:53.656Z,10.50
2023-01-30T06:04:21.480Z,10.63
2023-01-30T06:06:50.618Z,10.60
2023-01-30T06:09:18.661Z,13.30
2023-01-30T06:11:47.917Z,12.43
2023-01-30T06:14:15.666Z,13.40
2023-01-30T06:16:43.580Z,13.37
2023-01-30T06:19:11.596Z,12.13
2023-01-30T06:21:39.389Z,12.40
2023-01-30T06:24:07.759Z,11.63
2023-01-30T06:26:35.633Z,12.53
2023-01-30T06:29:04.820Z,12.33
2023-01-30T06:31:32.644Z,9.70
2023-01-30T06:34:00.418Z,11.20
2023-01-30T06:36:28.236Z,12.03
2023-01-30T06:38:56.270Z,15.50
2023-01-30T06:41:24.102Z,15.20
2023-01-30T06:43:51.875Z,15.07
2023-01-30T06:46:21.163Z,14.60
2023-01-30T06:48:48.930Z,10.93
2023-01-30T06:51:16.772Z,14.03
2023-01-30T06:53:44.592Z,11.63
2023-01-30T06:56:12.369Z,11.40
2023-01-30T06:58:40.140Z,14.20
2023-01-30T07:01:07.917Z,14.93
2023-01-30T07:03:37.084Z,10.40
2023-01-30T07:06:05.035Z,11.07
2023-01-30T07:08:32.842Z,10.50
2023-01-30T07:11:00.675Z,10.40
2023-01-30T07:13:28.467Z,9.77
2023-01-30T07:15:56.552Z,10.60
2023-01-30T07:18:24.304Z,8.93
2023-01-30T07:20:53.451Z,11.67
2023-01-30T07:23:21.576Z,9.60
2023-01-30T07:25:49.345Z,10.37
2023-01-30T07:28:17.174Z,8.87
2023-01-30T07:30:45.125Z,8.40
2023-01-30T07:33:12.963Z,8.00
2023-01-30T07:35:40.744Z,7.97
2023-01-30T07:38:09.833Z,9.83
2023-01-30T07:40:37.648Z,10.20
2023-01-30T07:43:06.748Z,8.87
2023-01-30T07:45:38.959Z,9.57
2023-01-30T07:48:07.382Z,9.10
2023-01-30T07:50:35.254Z,9.07
2023-01-30T07:53:04.477Z,8.07
2023-01-30T07:55:33.943Z,9.13
2023-01-30T07:58:01.778Z,8.97
2023-01-30T08:00:29.861Z,14.10
2023-01-30T08:02:57.748Z,12.43
2023-01-30T08:05:25.612Z,21.57
2023-01-30T08:07:53.562Z,14.30
2023-01-30T08:10:21.583Z,11.10
2023-01-30T08:12:52.437Z,8.57
2023-01-30T08:15:22.769Z,7.27
2023-01-30T08:17:59.533Z,8.53
2023-01-30T08:20:28.679Z,10.37
2023-01-30T08:22:56.765Z,8.43
2023-01-30T08:25:24.941Z,8.10
2023-01-30T08:27:54.532Z,10.17
2023-01-30T08:30:23.509Z,7.70
2023-01-30T08:32:51.341Z,9.03
2023-01-30T08:35:19.125Z,8.60
2023-01-30T08:37:46.907Z,8.17
2023-01-30T08:40:15.484Z,6.83
2023-01-30T08:42:45.111Z,10.10
2023-01-30T08:45:15.007Z,9.43
2023-01-30T08:47:42.813Z,8.57
2023-01-30T08:50:11.746Z,7.13
2023-01-30T08:52:39.539Z,9.03
2023-01-30T08:55:07.883Z,7.57
2023-01-30T08:57:35.698Z,7.40
2023-01-30T09:00:04.548Z,7.20
2023-01-30T09:02:33.754Z,6.57
2023-01-30T09:05:01.635Z,8.63
2023-01-30T09:07:29.649Z,9.20
2023-01-30T09:10:00.159Z,7.80
2023-01-30T09:12:28.533Z,8.83
2023-01-30T09:14:58.253Z,8.27
2023-01-30T09:17:26.157Z,6.40
2023-01-30T09:19:55.302Z,6.73
2023-01-30T09:22:23.160Z,8.03
2023-01-30T09:24:50.953Z,8.50
2023-01-30T09:27:18.835Z,7.63
2023-01-30T09:29:46.598Z,7.17
2023-01-30T09:32:14.395Z,7.00
2023-01-30T09:34:42.364Z,8.40
2023-01-30T09:37:11.577Z,7.40
2023-01-30T09:39:39.400Z,12.23
2023-01-30T09:42:36.544Z,13.23
2023-01-30T09:45:27.716Z,10.77
2023-01-30T09:48:04.932Z,10.67
2023-01-30T09:50:48.885Z,9.33
2023-01-30T09:53:25.438Z,9.00
2023-01-30T09:55:53.596Z,8.87
2023-01-30T09:58:23.811Z,10.37
2023-01-30T10:00:57.767Z,12.27
2023-01-30T10:03:30.826Z,10.80
2023-01-30T10:06:03.128Z,10.60
2023-01-30T10:08:46.497Z,7.57
2023-01-30T10:11:29.117Z,10.00
2023-01-30T10:14:22.283Z,10.67
2023-01-30T10:17:01.120Z,6.73
2023-01-30T10:19:46.628Z,8.73
2023-01-30T10:22:28.790Z,6.90
2023-01-30T10:25:07.699Z,6.83
2023-01-30T10:27:37.530Z,7.60
2023-01-30T10:30:08.796Z,5.37
2023-01-30T10:32:42.920Z,5.17
2023-01-30T10:35:17.638Z,6.20
2023-01-30T10:37:52.391Z,4.87
2023-01-30T10:40:25.156Z,5.43
2023-01-30T10:43:00.401Z,5.90
2023-01-30T10:45:36.659Z,5.27
2023-01-30T10:48:31.431Z,4.13
2023-01-30T10:51:22.396Z,5.27
2023-01-30T10:53:56.957Z,5.00
2023-01-30T10:56:35.141Z,4.63
2023-01-30T10:59:15.354Z,5.33
2023-01-30T11:01:46.088Z,3.73
2023-01-30T11:04:23.855Z,4.97
2023-01-30T11:06:52.866Z,5.00
2023-01-30T11:09:21.862Z,5.07
2023-01-30T11:11:54.116Z,6.17
2023-01-30T11:14:22.146Z,4.10
2023-01-30T11:16:54.177Z,4.37
2023-01-30T11:19:25.530Z,5.40
2023-01-30T11:21:55.581Z,3.23
2023-01-30T11:24:25.414Z,5.40
2023-01-30T11:26:55.621Z,5.63
2023-01-30T11:29:30.176Z,5.17
2023-01-30T11:32:02.527Z,4.43
2023-01-30T11:34:30.444Z,3.80
2023-01-30T11:37:14.083Z,3.90
2023-01-30T11:39:51.305Z,5.43
2023-01-30T11:42:25.098Z,4.73
2023-01-30T11:45:10.690Z,5.27
2023-01-30T11:47:57.994Z,4.43
2023-01-30T11:50:37.094Z,4.03
2023-01-30T11:53:19.819Z,4.60
2023-01-30T11:56:02.286Z,4.30
2023-01-30T11:58:35.621Z,3.97
2023-01-30T12:01:05.072Z,3.63
2023-01-30T12:03:34.447Z,4.87
2023-01-30T12:06:02.483Z,3.80
2023-01-30T12:08:44.315Z,2.87
2023-01-30T12:11:44.911Z,4.63
2023-01-30T12:14:35.486Z,6.13
2023-01-30T12:17:12.100Z,5.73
2023-01-30T12:19:57.683Z,5.70
2023-01-30T12:22:33.092Z,5.07
2023-01-30T12:25:02.506Z,5.87
2023-01-30T12:27:45.454Z,8.47
2023-01-30T12:30:31.272Z,4.33
2023-01-30T12:35:46.635Z,5.93
2023-01-30T12:38:26.530Z,5.67
2023-01-30T12:41:04.930Z,4.17
2023-01-30T12:44:00.946Z,5.13
2023-01-30T12:46:49.498Z,6.83
2023-01-30T12:49:39.547Z,5.00
2023-01-30T12:52:29.312Z,4.97
2023-01-30T12:55:03.465Z,4.93
2023-01-30T12:57:38.797Z,5.80
2023-01-30T13:00:25.487Z,4.20
2023-01-30T13:03:12.790Z,5.47
2023-01-30T13:05:45.689Z,4.60
2023-01-30T13:08:31.220Z,4.10
2023-01-30T13:11:07.300Z,5.60
2023-01-30T13:13:42.953Z,4.70
2023-01-30T13:16:18.562Z,4.93
2023-01-30T13:18:52.848Z,4.60
2023-01-30T13:21:24.532Z,5.30
2023-01-30T13:24:04.888Z,3.73
2023-01-30T13:26:35.612Z,4.50
2023-01-30T13:29:06.397Z,4.73
2023-01-30T13:31:39.854Z,6.83
2023-01-30T13:34:14.649Z,3.77
2023-01-30T13:36:48.035Z,5.13
2023-01-30T13:39:20.631Z,5.93
2023-01-30T13:41:55.752Z,6.70
2023-01-30T13:44:27.549Z,4.60
2023-01-30T13:46:57.112Z,5.33
2023-01-30T13:49:37.927Z,4.90
2023-01-30T13:52:12.480Z,5.10
2023-01-30T13:54:52.798Z,8.87
2023-01-30T13:57:32.109Z,40.67
2023-01-30T14:00:29.611Z,43.37
2023-01-30T14:03:16.513Z,11.93
2023-01-30T14:06:05.693Z,9.40
2023-01-30T14:08:40.100Z,10.33
2023-01-30T14:11:33.047Z,9.97
2023-01-30T14:14:05.401Z,8.90
2023-01-30T14:16:45.102Z,10.73
2023-01-30T14:19:39.053Z,6.60
2023-01-30T14:22:40.548Z,3.87
2023-01-30T14:25:44.841Z,4.57
2023-01-30T14:28:43.878Z,5.17
2023-01-30T14:31:12.011Z,5.23
2023-01-30T14:33:50.452Z,5.83
2023-01-30T14:36:37.719Z,5.20
2023-01-30T14:39:41.596Z,4.50
2023-01-30T14:42:19.798Z,4.30
2023-01-30T14:45:05.607Z,4.97
2023-01-30T14:47:46.257Z,5.50
2023-01-30T14:50:21.375Z,5.60
2023-01-30T14:52:50.460Z,4.60
2023-01-30T14:55:23.662Z,5.83
2023-01-30T14:57:56.043Z,4.53
2023-01-30T15:00:29.096Z,4.57
2023-01-30T15:03:00.620Z,5.07
2023-01-30T15:05:34.337Z,4.53
2023-01-30T15:08:09.719Z,6.17
2023-01-30T15:10:54.918Z,4.93
2023-01-30T15:13:56.566Z,4.23
2023-01-30T15:16:54.562Z,6.10
2023-01-30T15:19:51.566Z,7.63
2023-01-30T15:22:28.150Z,7.00
2023-01-30T15:25:37.715Z,6.40
2023-01-30T15:28:20.717Z,12.00
2023-01-30T15:31:09.564Z,6.40
2023-01-30T15:33:45.200Z,3.63
2023-01-30T15:36:24.023Z,5.33
2023-01-30T15:38:58.044Z,5.80
2023-01-30T15:41:26.202Z,3.97
2023-01-30T15:44:08.154Z,3.77
2023-01-30T15:46:47.225Z,4.90
2023-01-30T15:49:35.777Z,5.57
2023-01-30T15:52:06.450Z,4.20
2023-01-30T15:54:34.470Z,4.80
2023-01-30T15:57:02.293Z,5.10
2023-01-30T15:59:35.849Z,3.50
2023-01-30T16:02:05.760Z,6.43
2023-01-30T16:04:33.617Z,20.20
2023-01-30T16:07:14.427Z,9.13
2023-01-30T16:09:47.313Z,15.83
2023-01-30T16:12:36.405Z,9.07
2023-01-30T16:15:18.765Z,14.73
2023-01-30T16:17:56.275Z,9.63
2023-01-30T16:20:24.218Z,5.23
2023-01-30T16:22:52.998Z,11.97
2023-01-30T16:25:23.665Z,8.83
2023-01-30T16:27:53.503Z,5.80
2023-01-30T16:30:25.723Z,4.77
2023-01-30T16:32:55.755Z,5.30
2023-01-30T16:35:34.174Z,6.47
2023-01-30T16:38:04.988Z,10.07
2023-01-30T16:40:44.723Z,9.37
2023-01-30T16:43:19.911Z,11.67
2023-01-30T16:46:35.203Z,8.47
2023-01-30T16:49:05.745Z,6.03
2023-01-30T16:51:33.945Z,6.47
2023-01-30T16:54:04.440Z,5.20
2023-01-30T16:56:35.636Z,5.20
2023-01-30T16:59:03.907Z,6.93
2023-01-30T17:01:42.115Z,4.10
2023-01-30T17:04:20.471Z,5.23
2023-01-30T17:06:55.486Z,4.57
2023-01-30T17:09:41.531Z,6.00
2023-01-30T17:12:36.833Z,6.70
2023-01-30T17:15:30.007Z,4.97
2023-01-30T17:17:59.373Z,5.70
2023-01-30T17:20:40.652Z,4.87
2023-01-30T17:23:10.744Z,6.57
2023-01-30T17:25:42.703Z,5.60
2023-01-30T17:28:16.994Z,6.77
2023-01-30T17:30:44.790Z,5.47
2023-01-30T17:33:13.932Z,7.23
2023-01-30T17:35:41.768Z,8.50
2023-01-30T17:38:11.689Z,8.17
2023-01-30T17:40:39.753Z,6.67
2023-01-30T17:43:09.392Z,6.13
2023-01-30T17:45:37.575Z,5.47
2023-01-30T17:48:05.912Z,5.13
2023-01-30T17:50:36.438Z,6.43
2023-01-30T17:53:04.465Z,5.17
2023-01-30T17:55:33.275Z,5.67
2023-01-30T17:58:01.521Z,5.77
2023-01-30T18:00:29.501Z,5.37
2023-01-30T18:02:57.377Z,6.60
2023-01-30T18:05:25.562Z,6.70
2023-01-30T18:07:54.663Z,8.23
2023-01-30T18:10:22.649Z,6.63
2023-01-30T18:12:50.458Z,7.53
2023-01-30T18:15:18.553Z,6.67
2023-01-30T18:17:49.002Z,5.47
2023-01-30T18:20:20.172Z,7.57
2023-01-30T18:22:48.214Z,5.93
2023-01-30T18:25:18.196Z,5.90
2023-01-30T18:27:47.879Z,6.37
2023-01-30T18:30:17.647Z,8.20
2023-01-30T18:32:52.979Z,6.00
2023-01-30T18:35:21.675Z,5.10
2023-01-30T18:37:49.730Z,6.83
2023-01-30T18:40:19.920Z,5.27
2023-01-30T18:42:48.326Z,4.37
2023-01-30T18:45:16.306Z,7.63
2023-01-30T18:47:44.144Z,4.77
2023-01-30T18:50:12.557Z,6.17
2023-01-30T18:52:40.331Z,4.30
2023-01-30T18:55:08.797Z,5.43
2023-01-30T18:57:37.897Z,4.83
2023-01-30T19:00:06.789Z,5.87
2023-01-30T19:02:34.842Z,5.30
2023-01-30T19:05:02.648Z,14.20
2023-01-30T19:07:32.214Z,10.43
2023-01-30T19:10:00.351Z,10.17
2023-01-30T19:12:45.708Z,6.67
2023-01-30T19:15:14.930Z,4.57
2023-01-30T19:17:42.707Z,3.90
2023-01-30T19:20:12.024Z,4.97
2023-01-30T19:22:40.975Z,6.07
2023-01-30T19:25:09.508Z,4.80
2023-01-30T19:27:38.261Z,7.80
2023-01-30T19:30:07.399Z,6.80
2023-01-30T19:32:36.548Z,4.07
2023-01-30T19:35:04.632Z,5.40
2023-01-30T19:37:32.419Z,5.63
2023-01-30T19:40:00.206Z,5.17
2023-01-30T19:42:27.962Z,4.33
2023-01-30T19:44:56.332Z,6.87
2023-01-30T19:47:24.189Z,5.20
2023-01-30T19:49:53.811Z,5.57
2023-01-30T19:52:21.546Z,5.37
2023-01-30T19:54:49.287Z,7.20
2023-01-30T19:57:17.058Z,5.50
2023-01-30T19:59:45.202Z,7.07
2023-01-30T20:02:13.677Z,5.93
2023-01-30T20:04:41.555Z,5.77
2023-01-30T20:07:10.711Z,4.83
2023-01-30T20:09:38.598Z,7.10
2023-01-30T20:12:06.930Z,4.57
2023-01-30T20:14:34.688Z,4.40
2023-01-30T20:17:02.455Z,5.20
2023-01-30T20:19:30.284Z,6.50
2023-01-30T20:21:58.432Z,6.33
2023-01-30T20:24:28.005Z,7.37
2023-01-30T20:26:55.880Z,5.73
2023-01-30T20:29:23.660Z,7.70
2023-01-30T20:31:53.654Z,8.53
2023-01-30T20:34:21.763Z,5.80
2023-01-30T20:36:49.550Z,6.83
2023-01-30T20:39:20.581Z,5.60
2023-01-30T20:41:50.157Z,6.00
2023-01-30T20:44:17.959Z,5.97
2023-01-30T20:46:49.499Z,7.43
2023-01-30T20:49:19.465Z,5.93
2023-01-30T20:51:49.961Z,5.97
2023-01-30T20:54:19.102Z,6.10
2023-01-30T20:56:50.476Z,6.57
2023-01-30T20:59:20.584Z,5.40
2023-01-30T21:01:48.364Z,8.47
2023-01-30T21:04:17.466Z,6.97
2023-01-30T21:06:47.166Z,7.20
2023-01-30T21:09:18.130Z,6.57
2023-01-30T21:11:46.410Z,7.70
2023-01-30T21:14:16.468Z,6.50
2023-01-30T21:16:44.384Z,6.63
2023-01-30T21:19:15.047Z,5.40
2023-01-30T21:21:44.945Z,8.37
2023-01-30T21:24:14.857Z,7.00
2023-01-30T21:26:46.477Z,7.37
2023-01-30T21:29:17.342Z,6.53
2023-01-30T21:31:47.032Z,5.97
2023-01-30T21:34:14.927Z,7.37
2023-01-30T21:36:42.959Z,7.97
2023-01-30T21:39:32.197Z,6.73
2023-01-30T21:42:17.708Z,8.07
2023-01-30T21:44:46.818Z,6.20
2023-01-30T21:47:14.585Z,7.10
2023-01-30T21:49:43.842Z,5.63
2023-01-30T21:52:11.665Z,7.90
2023-01-30T21:54:39.944Z,9.20
2023-01-30T21:57:07.822Z,4.83
2023-01-30T21:59:35.651Z,5.70
2023-01-30T22:02:04.797Z,6.90
2023-01-30T22:04:35.541Z,6.10
2023-01-30T22:07:06.434Z,8.17
2023-01-30T22:09:34.651Z,9.87
2023-01-30T22:12:02.421Z,6.73
2023-01-30T22:14:30.787Z,6.07
2023-01-30T22:16:58.550Z,7.27
2023-01-30T22:19:27.686Z,9.23
2023-01-30T22:21:55.437Z,6.83
2023-01-30T22:24:23.384Z,8.20
2023-01-30T22:26:52.202Z,5.67
2023-01-30T22:29:20.120Z,7.10
2023-01-30T22:31:47.933Z,9.80
2023-01-30T22:34:15.734Z,8.13
2023-01-30T22:36:44.819Z,10.47
2023-01-30T22:39:12.632Z,7.40
2023-01-30T22:41:40.674Z,8.17
2023-01-30T22:44:10.798Z,12.73
2023-01-30T22:46:40.364Z,10.07
2023-01-30T22:49:10.072Z,9.10
2023-01-30T22:51:39.647Z,9.20
2023-01-30T22:54:11.510Z,5.57
2023-01-30T22:56:41.212Z,5.20
2023-01-30T22:59:09.849Z,6.70
2023-01-30T23:01:39.385Z,8.53
2023-01-30T23:04:11.266Z,6.60
2023-01-30T23:06:39.486Z,9.83
2023-01-30T23:09:10.506Z,7.97
2023-01-30T23:11:40.569Z,9.80
2023-01-30T23:14:10.772Z,7.37
2023-01-30T23:16:40.660Z,5.60
2023-01-30T23:19:08.984Z,5.80
2023-01-30T23:21:39.177Z,4.87
2023-01-30T23:24:11.916Z,6.80
2023-01-30T23:26:42.751Z,7.30
2023-01-30T23:29:13.160Z,5.33
2023-01-30T23:31:41.942Z,9.30
2023-01-30T23:34:13.873Z,10.20
2023-01-30T23:36:41.657Z,9.40
2023-01-30T23:39:13.334Z,8.97
2023-01-30T23:41:42.278Z,6.00
2023-01-30T23:44:10.220Z,5.87
2023-01-30T23:46:40.000Z,9.27
2023-01-30T23:49:09.727Z,6.83
2023-01-30T23:51:39.887Z,6.67
2023-01-30T23:54:08.480Z,8.77
2023-01-30T23:56:40.080Z,8.47
2023-01-30T23:59:08.263Z,5.43
